Ammansville, Texas
Current Conditions -  °F | °C
As of 10:55 PM on Friday 28 Nov 2014 (Local Time) from K3T5 Reporting Station
Clear Clear  
Wind Chill: 57°   Ceiling: Unl
Heat Index: 57°   Visibility: 10mi
Dew Point: 54°   Wind: 6mph
Humidity: 89%   Direction: 170°S
Pressure: 30.11"   Gusts: NA
Location:  29.8569°N, 96.9311°W
Report Text: K3T5 290455Z AUTO 17005KT 10SM CLR 14/12 A3011 RMK AO2 T01410123
Loading
Personal Weather Stations






























Interactive Weather Map New forecast layout! Learn more

10-Day Weather Forecast

Advertisements
Track Severe Weather on mobile